createdAt,value
2022-09-07T00:00:48.536Z,4.78
2022-09-07T00:01:51.145Z,5.50
2022-09-07T00:02:52.833Z,4.85
2022-09-07T00:03:55.985Z,5.60
2022-09-07T00:04:57.605Z,5.28
2022-09-07T00:06:00.443Z,5.50
2022-09-07T00:07:02.084Z,5.65
2022-09-07T00:08:04.767Z,5.20
2022-09-07T00:09:07.717Z,6.28
2022-09-07T00:10:11.069Z,4.63
2022-09-07T00:11:14.838Z,6.07
2022-09-07T00:12:17.427Z,5.15
2022-09-07T00:13:19.091Z,5.30
2022-09-07T00:14:21.824Z,5.20
2022-09-07T00:15:23.474Z,5.22
2022-09-07T00:16:28.315Z,5.20
2022-09-07T00:17:29.984Z,4.93
2022-09-07T00:18:32.580Z,4.78
2022-09-07T00:19:34.187Z,5.28
2022-09-07T00:20:37.277Z,4.95
2022-09-07T00:21:39.033Z,4.85
2022-09-07T00:22:41.702Z,5.47
2022-09-07T00:23:43.909Z,5.00
2022-09-07T00:24:47.865Z,5.30
2022-09-07T00:25:53.915Z,5.05
2022-09-07T00:26:57.178Z,5.10
2022-09-07T00:27:59.054Z,5.45
2022-09-07T00:29:03.142Z,5.40
2022-09-07T00:30:06.061Z,5.22
2022-09-07T00:31:11.632Z,4.90
2022-09-07T00:32:13.314Z,4.25
2022-09-07T00:33:15.904Z,5.18
2022-09-07T00:34:17.528Z,4.75
2022-09-07T00:35:20.121Z,4.95
2022-09-07T00:36:22.720Z,4.90
2022-09-07T00:37:25.355Z,4.50
2022-09-07T00:38:27.047Z,4.15
2022-09-07T00:39:29.933Z,4.35
2022-09-07T00:40:32.929Z,4.40
2022-09-07T00:41:35.495Z,4.95
2022-09-07T00:42:37.200Z,3.92
2022-09-07T00:43:42.455Z,3.90
2022-09-07T00:45:10.180Z,4.47
2022-09-07T00:46:16.160Z,4.03
2022-09-07T00:47:20.239Z,3.30
2022-09-07T00:48:25.694Z,3.47
2022-09-07T00:49:27.430Z,2.90
2022-09-07T00:50:33.159Z,3.47
2022-09-07T00:51:39.754Z,3.35
2022-09-07T00:52:43.460Z,3.10
2022-09-07T00:53:47.938Z,3.55
2022-09-07T00:54:53.388Z,2.83
2022-09-07T00:55:57.892Z,3.05
2022-09-07T00:57:00.992Z,2.90
2022-09-07T00:58:03.396Z,3.10
2022-09-07T00:59:06.123Z,3.60
2022-09-07T01:00:09.451Z,3.25
2022-09-07T01:01:12.849Z,2.75
2022-09-07T01:02:17.227Z,2.90
2022-09-07T01:03:24.836Z,3.00
2022-09-07T01:04:26.611Z,2.53
2022-09-07T01:05:32.785Z,3.45
2022-09-07T01:06:36.497Z,2.45
2022-09-07T01:07:39.060Z,2.70
2022-09-07T01:08:41.537Z,2.97
2022-09-07T01:09:46.693Z,3.00
2022-09-07T01:10:48.329Z,2.92
2022-09-07T01:11:52.641Z,2.20
2022-09-07T01:12:54.227Z,2.20
2022-09-07T01:13:58.069Z,2.20
2022-09-07T01:14:59.819Z,2.45
2022-09-07T01:16:09.191Z,2.50
2022-09-07T01:17:15.531Z,2.40
2022-09-07T01:18:24.086Z,2.28
2022-09-07T01:19:53.821Z,1.92
2022-09-07T01:21:20.346Z,2.30
2022-09-07T01:22:38.960Z,2.08
2022-09-07T01:24:04.392Z,2.17
2022-09-07T01:25:10.375Z,2.40
2022-09-07T01:26:49.411Z,2.20
2022-09-07T01:28:09.852Z,2.08
2022-09-07T01:29:17.222Z,2.22
2022-09-07T01:30:20.749Z,2.45
2022-09-07T01:31:29.333Z,2.50
2022-09-07T01:32:39.689Z,2.40
2022-09-07T01:33:48.549Z,2.30
2022-09-07T01:34:54.056Z,2.10
2022-09-07T01:36:03.659Z,2.38
2022-09-07T01:37:12.775Z,2.05
2022-09-07T01:38:18.835Z,2.28
2022-09-07T01:39:24.381Z,2.00
2022-09-07T01:40:35.504Z,2.28
2022-09-07T01:41:43.592Z,2.53
2022-09-07T01:42:49.686Z,2.65
2022-09-07T01:43:55.408Z,2.42
2022-09-07T01:45:00.493Z,2.15
2022-09-07T01:46:04.853Z,2.55
2022-09-07T01:47:08.560Z,2.20
2022-09-07T01:48:15.957Z,2.63
2022-09-07T01:49:21.188Z,2.00
2022-09-07T01:50:27.465Z,1.92
2022-09-07T01:51:31.383Z,2.33
2022-09-07T01:52:37.314Z,2.50
2022-09-07T01:53:41.927Z,2.30
2022-09-07T01:54:47.492Z,2.78
2022-09-07T01:55:52.241Z,2.30
2022-09-07T01:56:58.117Z,2.25
2022-09-07T01:58:02.438Z,2.03
2022-09-07T01:59:10.234Z,2.35
2022-09-07T02:00:14.904Z,2.10
2022-09-07T02:01:23.252Z,2.30
2022-09-07T02:02:28.746Z,2.30
2022-09-07T02:03:35.491Z,2.40
2022-09-07T02:04:39.925Z,2.67
2022-09-07T02:05:45.992Z,2.10
2022-09-07T02:06:49.971Z,2.40
2022-09-07T02:07:55.119Z,2.08
2022-09-07T02:09:00.828Z,2.35
2022-09-07T02:10:07.832Z,2.40
2022-09-07T02:11:13.197Z,2.88
2022-09-07T02:12:19.267Z,2.35
2022-09-07T02:13:24.319Z,2.08
2022-09-07T02:14:30.751Z,2.50
2022-09-07T02:15:41.624Z,2.28
2022-09-07T02:16:48.991Z,2.25
2022-09-07T02:17:52.575Z,2.47
2022-09-07T02:18:57.704Z,2.50
2022-09-07T02:20:05.435Z,2.40
2022-09-07T02:21:09.608Z,2.30
2022-09-07T02:22:14.769Z,2.88
2022-09-07T02:23:20.962Z,2.80
2022-09-07T02:24:25.970Z,2.38
2022-09-07T02:25:32.504Z,3.05
2022-09-07T02:26:35.437Z,2.58
2022-09-07T02:27:42.508Z,2.33
2022-09-07T02:28:44.311Z,2.13
2022-09-07T02:29:48.297Z,2.13
2022-09-07T02:30:49.958Z,2.40
2022-09-07T02:31:52.588Z,2.63
2022-09-07T02:32:56.264Z,2.65
2022-09-07T02:33:59.427Z,2.22
2022-09-07T02:35:01.056Z,2.28
2022-09-07T02:36:04.800Z,2.85
2022-09-07T02:37:09.037Z,2.20
2022-09-07T02:38:13.624Z,2.25
2022-09-07T02:39:15.236Z,2.67
2022-09-07T02:40:18.257Z,2.95
2022-09-07T02:41:32.738Z,2.35
2022-09-07T02:42:36.450Z,2.22
2022-09-07T02:43:38.057Z,3.10
2022-09-07T02:44:42.281Z,2.13
2022-09-07T02:45:51.242Z,3.10
2022-09-07T02:47:02.405Z,2.03
2022-09-07T02:48:11.797Z,2.42
2022-09-07T02:49:25.977Z,2.13
2022-09-07T02:50:42.407Z,1.85
2022-09-07T02:51:48.365Z,2.20
2022-09-07T02:52:59.596Z,1.80
2022-09-07T02:54:16.202Z,1.67
2022-09-07T02:55:27.012Z,1.95
2022-09-07T02:56:46.228Z,1.70
2022-09-07T02:57:54.005Z,2.20
2022-09-07T02:59:05.509Z,1.38
2022-09-07T03:00:10.750Z,1.90
2022-09-07T03:01:20.659Z,1.65
2022-09-07T03:02:28.969Z,1.95
2022-09-07T03:03:37.121Z,1.90
2022-09-07T03:04:43.401Z,1.60
2022-09-07T03:05:50.197Z,2.05
2022-09-07T03:06:53.310Z,1.95
2022-09-07T03:08:01.124Z,2.17
2022-09-07T03:09:06.895Z,2.13
2022-09-07T03:10:09.909Z,1.92
2022-09-07T03:11:14.916Z,1.80
2022-09-07T03:12:18.128Z,1.90
2022-09-07T03:13:21.594Z,1.40
2022-09-07T03:14:25.983Z,1.80
2022-09-07T03:15:28.148Z,1.55
2022-09-07T03:16:32.168Z,1.77
2022-09-07T03:17:33.793Z,1.70
2022-09-07T03:18:36.412Z,1.40
2022-09-07T03:19:38.312Z,1.70
2022-09-07T03:20:40.925Z,1.65
2022-09-07T03:21:42.601Z,1.63
2022-09-07T03:22:45.676Z,1.85
2022-09-07T03:23:51.599Z,1.95
2022-09-07T03:24:54.429Z,1.80
2022-09-07T03:25:56.071Z,1.70
2022-09-07T03:26:58.875Z,2.03
2022-09-07T03:28:00.522Z,2.20
2022-09-07T03:29:03.145Z,1.92
2022-09-07T03:30:06.451Z,2.30
2022-09-07T03:31:09.139Z,1.80
2022-09-07T03:32:12.536Z,2.00
2022-09-07T03:33:16.065Z,2.30
2022-09-07T03:34:17.766Z,2.20
2022-09-07T03:35:20.333Z,2.35
2022-09-07T03:36:22.912Z,2.35
2022-09-07T03:37:24.511Z,2.25
2022-09-07T03:38:27.294Z,2.10
2022-09-07T03:39:29.168Z,2.20
2022-09-07T03:40:31.820Z,1.63
2022-09-07T03:41:33.817Z,2.28
2022-09-07T03:42:36.735Z,2.10
2022-09-07T03:43:38.361Z,1.60
2022-09-07T03:44:40.936Z,2.45
2022-09-07T03:45:43.567Z,2.10
2022-09-07T03:46:45.547Z,1.95
2022-09-07T03:47:51.045Z,1.90
2022-09-07T03:48:53.841Z,2.22
2022-09-07T03:49:56.552Z,2.13
2022-09-07T03:51:00.409Z,2.13
2022-09-07T03:52:03.495Z,2.35
2022-09-07T03:53:05.105Z,2.33
2022-09-07T03:54:08.211Z,2.45
2022-09-07T03:55:10.142Z,2.75
2022-09-07T03:56:16.058Z,2.20
2022-09-07T03:57:20.145Z,2.17
2022-09-07T03:58:22.891Z,2.45
2022-09-07T03:59:24.713Z,2.28
2022-09-07T04:00:27.463Z,2.15
2022-09-07T04:01:29.248Z,2.33
2022-09-07T04:02:31.907Z,2.30
2022-09-07T04:03:36.096Z,2.80
2022-09-07T04:04:37.857Z,2.17
2022-09-07T04:05:40.578Z,2.03
2022-09-07T04:06:42.475Z,2.50
2022-09-07T04:07:45.153Z,2.40
2022-09-07T04:08:46.915Z,2.22
2022-09-07T04:09:51.206Z,2.25
2022-09-07T04:10:52.902Z,3.70
2022-09-07T04:11:55.526Z,2.35
2022-09-07T04:12:57.225Z,2.22
2022-09-07T04:14:00.101Z,2.20
2022-09-07T04:15:01.736Z,2.15
2022-09-07T04:16:11.285Z,2.00
2022-09-07T04:17:14.374Z,2.30
2022-09-07T04:18:18.416Z,2.20
2022-09-07T04:19:22.472Z,2.50
2022-09-07T04:20:25.365Z,2.90
2022-09-07T04:21:30.524Z,2.80
2022-09-07T04:22:32.150Z,2.70
2022-09-07T04:23:34.902Z,2.83
2022-09-07T04:24:36.559Z,2.97
2022-09-07T04:25:39.506Z,2.65
2022-09-07T04:26:43.171Z,3.03
2022-09-07T04:27:45.810Z,2.55
2022-09-07T04:28:47.904Z,3.20
2022-09-07T04:29:50.521Z,3.10
2022-09-07T04:30:52.188Z,2.88
2022-09-07T04:31:54.808Z,2.83
2022-09-07T04:32:56.420Z,2.88
2022-09-07T04:33:59.141Z,2.30
2022-09-07T04:35:02.397Z,2.80
2022-09-07T04:36:05.498Z,2.80
2022-09-07T04:37:07.121Z,2.80
2022-09-07T04:38:14.884Z,2.60
2022-09-07T04:39:16.503Z,2.90
2022-09-07T04:40:19.233Z,2.63
2022-09-07T04:41:21.869Z,2.95
2022-09-07T04:42:23.663Z,2.88
2022-09-07T04:43:26.303Z,2.85
2022-09-07T04:44:28.919Z,2.90
2022-09-07T04:45:30.545Z,2.90
2022-09-07T04:46:34.633Z,2.85
2022-09-07T04:47:36.308Z,2.50
2022-09-07T04:48:38.934Z,2.97
2022-09-07T04:49:40.526Z,3.10
2022-09-07T04:50:44.492Z,2.65
2022-09-07T04:51:46.111Z,3.00
2022-09-07T04:52:48.688Z,3.22
2022-09-07T04:53:51.523Z,3.08
2022-09-07T04:54:54.106Z,3.20
2022-09-07T04:55:58.041Z,3.40
2022-09-07T04:57:00.674Z,3.10
2022-09-07T04:58:02.386Z,3.17
2022-09-07T04:59:05.352Z,3.75
2022-09-07T05:00:08.317Z,4.05
2022-09-07T05:01:11.297Z,3.40
2022-09-07T05:02:13.080Z,3.42
2022-09-07T05:03:15.714Z,3.33
2022-09-07T05:04:17.359Z,4.07
2022-09-07T05:05:19.947Z,4.07
2022-09-07T05:06:23.321Z,3.70
2022-09-07T05:07:25.937Z,5.30
2022-09-07T05:08:27.676Z,4.40
2022-09-07T05:09:30.258Z,4.30
2022-09-07T05:10:32.208Z,4.55
2022-09-07T05:11:34.821Z,4.50
2022-09-07T05:12:36.465Z,4.05
2022-09-07T05:13:39.305Z,4.22
2022-09-07T05:14:40.888Z,4.18
2022-09-07T05:15:43.443Z,4.45
2022-09-07T05:16:45.111Z,4.25
2022-09-07T05:17:47.832Z,4.03
2022-09-07T05:18:50.449Z,4.00
2022-09-07T05:19:53.368Z,4.13
2022-09-07T05:20:55.025Z,4.63
2022-09-07T05:21:59.299Z,4.15
2022-09-07T05:23:00.874Z,4.00
2022-09-07T05:24:04.705Z,4.05
2022-09-07T05:25:06.902Z,4.03
2022-09-07T05:26:10.518Z,4.15
2022-09-07T05:27:12.969Z,4.47
2022-09-07T05:28:19.281Z,4.15
2022-09-07T05:32:06.919Z,4.68
2022-09-07T05:33:08.515Z,4.25
2022-09-07T05:35:34.284Z,4.20
2022-09-07T05:36:35.990Z,4.88
2022-09-07T05:37:40.153Z,4.53
2022-09-07T05:38:41.880Z,4.18
2022-09-07T05:39:44.519Z,4.38
2022-09-07T05:40:46.181Z,4.05
2022-09-07T05:41:48.802Z,3.70
2022-09-07T05:42:50.547Z,4.00
2022-09-07T05:45:16.647Z,4.38
2022-09-07T05:46:18.732Z,8.05
2022-09-07T05:47:21.371Z,4.75
2022-09-07T05:48:22.995Z,4.20
2022-09-07T05:49:25.644Z,4.20
2022-09-07T05:50:27.233Z,4.20
2022-09-07T05:51:29.803Z,3.97
2022-09-07T05:52:31.649Z,4.07
2022-09-07T05:53:36.751Z,3.83
2022-09-07T05:54:38.360Z,4.10
2022-09-07T05:55:41.033Z,4.07
2022-09-07T05:56:42.775Z,4.07
2022-09-07T05:57:45.401Z,4.03
2022-09-07T05:58:48.370Z,3.50
2022-09-07T05:59:50.983Z,3.72
2022-09-07T06:00:54.021Z,4.18
2022-09-07T06:01:55.849Z,4.13
2022-09-07T06:02:58.721Z,4.50
2022-09-07T06:04:00.470Z,3.70
2022-09-07T06:05:03.020Z,3.72
2022-09-07T06:06:06.146Z,4.25
2022-09-07T06:07:21.479Z,3.90
2022-09-07T06:08:25.046Z,3.72
2022-09-07T06:09:30.485Z,3.78
2022-09-07T06:10:44.209Z,3.38
2022-09-07T06:11:46.138Z,3.20
2022-09-07T06:12:49.407Z,3.60
2022-09-07T06:13:52.081Z,3.67
2022-09-07T06:14:54.687Z,4.10
2022-09-07T06:16:00.014Z,3.08
2022-09-07T06:17:02.642Z,3.53
2022-09-07T06:18:04.271Z,3.95
2022-09-07T06:19:08.014Z,3.35
2022-09-07T06:20:10.379Z,2.97
2022-09-07T06:21:14.309Z,3.88
2022-09-07T06:22:15.897Z,2.85
2022-09-07T06:23:18.473Z,3.10
2022-09-07T06:24:20.076Z,4.22
2022-09-07T06:25:23.978Z,3.45
2022-09-07T06:26:25.623Z,3.22
2022-09-07T06:27:32.340Z,2.95
2022-09-07T06:28:35.809Z,3.50
2022-09-07T06:29:38.458Z,3.45
2022-09-07T06:30:40.293Z,3.00
2022-09-07T06:33:05.497Z,3.13
2022-09-07T06:34:07.141Z,2.78
2022-09-07T06:35:10.907Z,3.13
2022-09-07T06:36:14.968Z,3.38
2022-09-07T06:37:16.696Z,3.78
2022-09-07T06:38:19.240Z,3.42
2022-09-07T06:39:20.914Z,3.13
2022-09-07T06:40:24.821Z,3.05
2022-09-07T06:42:51.032Z,2.65
2022-09-07T06:43:54.022Z,3.45
2022-09-07T06:44:56.649Z,2.75
2022-09-07T06:47:21.218Z,2.80
2022-09-07T06:48:23.218Z,3.33
2022-09-07T06:49:26.383Z,3.13
2022-09-07T06:50:28.147Z,2.63
2022-09-07T06:51:32.040Z,3.33
2022-09-07T06:55:20.247Z,2.78
2022-09-07T06:56:27.251Z,2.92
2022-09-07T06:57:28.869Z,3.13
2022-09-07T06:58:31.654Z,3.30
2022-09-07T06:59:33.468Z,1.65
2022-09-07T07:00:36.134Z,2.85
2022-09-07T07:01:37.853Z,3.05
2022-09-07T07:02:40.427Z,2.85
2022-09-07T07:03:42.699Z,3.08
2022-09-07T07:04:46.523Z,2.90
2022-09-07T07:05:52.728Z,3.20
2022-09-07T07:06:55.366Z,2.95
2022-09-07T07:07:57.059Z,2.60
2022-09-07T07:08:59.821Z,3.70
2022-09-07T07:10:01.490Z,3.05
2022-09-07T07:11:05.756Z,3.60
2022-09-07T07:12:08.911Z,3.25
2022-09-07T07:13:11.823Z,3.03
2022-09-07T07:14:15.718Z,2.97
2022-09-07T07:15:17.387Z,3.15
2022-09-07T07:16:20.410Z,3.08
2022-09-07T07:17:22.121Z,2.80
2022-09-07T07:18:24.750Z,2.70
2022-09-07T07:19:26.414Z,3.30
2022-09-07T07:20:29.861Z,3.20
2022-09-07T07:21:49.163Z,3.90
2022-09-07T07:22:54.402Z,2.72
2022-09-07T07:23:56.984Z,2.83
2022-09-07T07:24:58.820Z,3.00
2022-09-07T07:26:03.240Z,2.53
2022-09-07T07:27:04.891Z,3.30
2022-09-07T07:29:31.459Z,3.00
2022-09-07T07:30:33.161Z,3.10
2022-09-07T07:31:36.246Z,3.38
2022-09-07T07:32:38.130Z,3.35
2022-09-07T07:33:41.379Z,2.45
2022-09-07T07:34:43.157Z,3.20
2022-09-07T07:35:45.667Z,3.20
2022-09-07T07:36:47.231Z,3.47
2022-09-07T07:37:53.286Z,3.00
2022-09-07T07:40:39.777Z,3.33
2022-09-07T07:41:59.021Z,2.85
2022-09-07T07:43:04.351Z,2.92
2022-09-07T07:44:08.506Z,3.22
2022-09-07T07:46:36.983Z,3.42
2022-09-07T07:47:38.724Z,2.90
2022-09-07T07:48:41.863Z,3.03
2022-09-07T07:49:43.431Z,3.90
2022-09-07T07:50:45.968Z,3.80
2022-09-07T07:54:35.993Z,3.05
2022-09-07T07:55:45.846Z,1.65
2022-09-07T07:56:48.658Z,3.13
2022-09-07T07:57:50.398Z,3.88
2022-09-07T07:58:53.557Z,3.53
2022-09-07T07:59:57.579Z,3.65
2022-09-07T08:01:02.969Z,4.07
2022-09-07T08:02:06.645Z,4.00
2022-09-07T08:03:08.606Z,4.13
2022-09-07T08:04:11.275Z,2.17
2022-09-07T08:05:12.926Z,2.42
2022-09-07T08:06:16.808Z,3.33
2022-09-07T08:07:19.217Z,2.20
2022-09-07T08:08:22.897Z,3.50
2022-09-07T08:09:24.563Z,3.63
2022-09-07T08:10:28.624Z,3.72
2022-09-07T08:11:31.544Z,4.00
2022-09-07T08:12:34.193Z,3.65
2022-09-07T08:13:36.449Z,4.38
2022-09-07T08:14:40.851Z,4.20
2022-09-07T08:15:45.222Z,4.07
2022-09-07T08:16:48.094Z,2.55
2022-09-07T08:17:50.005Z,1.65
2022-09-07T08:18:53.559Z,4.05
2022-09-07T08:19:55.752Z,4.63
2022-09-07T08:21:00.626Z,3.88
2022-09-07T08:22:03.837Z,3.65
2022-09-07T08:23:07.370Z,4.63
2022-09-07T08:24:10.177Z,4.38
2022-09-07T08:25:12.978Z,4.38
2022-09-07T08:26:16.045Z,4.60
2022-09-07T08:27:18.873Z,5.03
2022-09-07T08:28:21.853Z,2.70
2022-09-07T08:29:24.105Z,4.78
2022-09-07T08:30:26.670Z,4.45
2022-09-07T08:31:30.747Z,4.43
2022-09-07T08:32:32.323Z,5.15
2022-09-07T08:33:36.144Z,5.18
2022-09-07T08:34:38.678Z,5.25
2022-09-07T08:35:40.284Z,4.45
2022-09-07T08:36:43.868Z,5.68
2022-09-07T08:37:45.704Z,2.95
2022-09-07T08:38:48.790Z,4.05
2022-09-07T08:39:50.421Z,1.83
2022-09-07T08:40:53.239Z,4.95
2022-09-07T08:42:17.946Z,5.50
2022-09-07T08:43:31.392Z,6.03
2022-09-07T08:44:34.869Z,4.30
2022-09-07T08:45:40.039Z,6.05
2022-09-07T08:46:47.046Z,6.80
2022-09-07T08:47:50.356Z,7.13
2022-09-07T08:48:53.374Z,7.25
2022-09-07T08:50:01.596Z,7.65
2022-09-07T08:51:06.931Z,7.40
2022-09-07T08:52:13.421Z,6.50
2022-09-07T08:53:16.628Z,7.45
2022-09-07T08:54:19.327Z,7.75
2022-09-07T08:55:27.918Z,6.55
2022-09-07T08:56:33.773Z,7.30
2022-09-07T08:57:40.267Z,5.13
2022-09-07T08:58:49.187Z,8.82
2022-09-07T08:59:56.271Z,7.00
2022-09-07T09:02:32.526Z,6.25
2022-09-07T09:04:15.537Z,3.95
2022-09-07T09:06:24.155Z,4.95
2022-09-07T09:07:31.928Z,7.63
2022-09-07T09:08:46.849Z,7.15
2022-09-07T09:10:05.446Z,3.78
2022-09-07T09:11:12.293Z,7.35
2022-09-07T09:12:20.513Z,10.50
2022-09-07T09:13:26.933Z,10.60
2022-09-07T09:14:31.973Z,11.63
2022-09-07T09:15:47.490Z,10.27
2022-09-07T09:16:53.180Z,9.93
2022-09-07T09:18:00.932Z,10.68
2022-09-07T09:19:13.468Z,11.02
2022-09-07T09:20:22.258Z,10.90
2022-09-07T09:21:23.819Z,6.90
2022-09-07T09:22:28.455Z,9.02
2022-09-07T09:23:35.787Z,8.90
2022-09-07T09:24:38.875Z,5.22
2022-09-07T09:25:45.607Z,9.75
2022-09-07T09:27:58.313Z,4.60
2022-09-07T09:29:13.264Z,5.38
2022-09-07T09:30:16.487Z,5.13
2022-09-07T09:31:21.229Z,7.63
2022-09-07T09:32:42.166Z,8.18
2022-09-07T09:33:46.470Z,10.48
2022-09-07T09:35:01.515Z,11.57
2022-09-07T09:36:04.277Z,11.88
2022-09-07T09:37:06.055Z,7.13
2022-09-07T09:38:29.641Z,11.30
2022-09-07T09:39:33.531Z,6.25
2022-09-07T09:40:36.992Z,11.77
2022-09-07T09:41:40.130Z,6.15
2022-09-07T09:42:41.966Z,11.05
2022-09-07T09:43:46.153Z,10.73
2022-09-07T09:44:47.987Z,9.60
2022-09-07T09:47:30.604Z,7.97
2022-09-07T09:48:34.920Z,12.20
2022-09-07T09:49:39.329Z,13.55
2022-09-07T09:52:40.343Z,12.23
2022-09-07T09:53:41.961Z,5.22
2022-09-07T09:54:44.855Z,6.50
2022-09-07T09:55:52.815Z,6.47
2022-09-07T09:56:55.581Z,6.45
2022-09-07T10:04:57.146Z,15.10
2022-09-07T10:06:02.308Z,14.68
2022-09-07T10:07:12.104Z,14.55
2022-09-07T10:08:23.614Z,14.23
2022-09-07T10:09:27.418Z,14.70
2022-09-07T10:10:31.412Z,15.85
2022-09-07T10:13:08.681Z,14.50
2022-09-07T10:14:17.849Z,13.45
2022-09-07T10:15:27.894Z,14.00
2022-09-07T10:16:36.772Z,14.80
2022-09-07T10:17:42.784Z,14.27
2022-09-07T10:18:56.039Z,12.55
2022-09-07T10:20:02.762Z,12.57
2022-09-07T10:21:22.613Z,12.68
2022-09-07T10:22:31.241Z,13.15
2022-09-07T10:23:33.858Z,13.60
2022-09-07T10:24:39.186Z,13.63
2022-09-07T10:25:44.226Z,13.93
2022-09-07T10:26:47.255Z,13.30
2022-09-07T10:28:02.360Z,12.23
2022-09-07T10:29:12.847Z,12.63
2022-09-07T10:30:17.284Z,12.93
2022-09-07T10:31:22.131Z,12.32
2022-09-07T10:32:32.652Z,11.70
2022-09-07T10:33:41.847Z,10.82
2022-09-07T10:34:51.744Z,11.80
2022-09-07T10:36:00.700Z,12.13
2022-09-07T10:37:05.504Z,11.30
2022-09-07T10:38:16.391Z,11.65
2022-09-07T10:39:20.480Z,11.35
2022-09-07T10:40:31.613Z,13.20
2022-09-07T10:41:39.874Z,11.93
2022-09-07T10:43:20.834Z,11.57
2022-09-07T10:44:17.542Z,10.75
2022-09-07T10:45:20.496Z,9.52
2022-09-07T10:48:01.213Z,11.40
2022-09-07T10:49:14.480Z,10.98
2022-09-07T10:50:26.233Z,10.82
2022-09-07T10:51:34.636Z,9.88
2022-09-07T10:52:40.057Z,9.77
2022-09-07T10:53:47.298Z,9.98
2022-09-07T10:54:53.416Z,10.00
2022-09-07T10:56:01.105Z,10.02
2022-09-07T10:57:11.931Z,7.93
2022-09-07T10:59:01.563Z,7.60
2022-09-07T11:00:08.800Z,7.60
2022-09-07T11:01:17.005Z,6.95
2022-09-07T11:02:25.039Z,5.70
2022-09-07T11:03:39.132Z,5.38
2022-09-07T11:04:47.977Z,5.05
2022-09-07T11:06:01.250Z,5.70
2022-09-07T11:07:14.950Z,5.38
2022-09-07T11:08:28.150Z,5.95
2022-09-07T11:09:44.580Z,5.88
2022-09-07T11:10:52.413Z,5.90
2022-09-07T11:12:03.055Z,5.88
2022-09-07T11:13:07.563Z,5.40
2022-09-07T11:14:13.825Z,4.40
2022-09-07T11:15:19.813Z,4.25
2022-09-07T11:17:52.700Z,6.32
2022-09-07T11:20:26.903Z,5.68
2022-09-07T11:23:03.934Z,6.45
2022-09-07T11:24:10.144Z,4.50
2022-09-07T11:25:33.538Z,4.80
2022-09-07T11:26:37.998Z,3.97
2022-09-07T11:27:45.813Z,3.95
2022-09-07T11:29:29.198Z,3.78
2022-09-07T11:30:22.460Z,4.00
2022-09-07T11:31:26.544Z,3.80
2022-09-07T11:32:30.888Z,3.63
2022-09-07T11:33:36.080Z,3.13
2022-09-07T11:34:40.782Z,2.90
2022-09-07T11:35:48.955Z,3.45
2022-09-07T11:36:57.053Z,3.08
2022-09-07T11:38:02.495Z,3.63
2022-09-07T11:39:11.610Z,3.30
2022-09-07T11:40:18.284Z,3.80
2022-09-07T11:41:25.613Z,3.50
2022-09-07T11:42:48.547Z,3.33
2022-09-07T11:43:58.262Z,3.35
2022-09-07T11:45:02.715Z,3.22
2022-09-07T11:46:08.021Z,3.20
2022-09-07T11:47:14.374Z,3.13
2022-09-07T11:48:19.949Z,3.13
2022-09-07T11:49:22.776Z,3.22
2022-09-07T11:50:25.718Z,3.00
2022-09-07T11:51:38.571Z,3.03
2022-09-07T11:52:43.095Z,3.03
2022-09-07T11:53:48.877Z,3.35
2022-09-07T11:54:54.597Z,3.20
2022-09-07T11:55:59.274Z,3.63
2022-09-07T11:57:12.095Z,3.35
2022-09-07T11:58:29.705Z,3.38
2022-09-07T11:59:44.589Z,3.58
2022-09-07T12:00:55.433Z,3.45
2022-09-07T12:02:10.339Z,3.08
2022-09-07T12:03:39.935Z,4.15
2022-09-07T12:05:04.411Z,3.28
2022-09-07T12:06:40.738Z,3.13
2022-09-07T12:08:01.829Z,3.08
2022-09-07T12:09:16.286Z,2.50
2022-09-07T12:10:32.825Z,4.82
2022-09-07T12:11:59.480Z,3.20
2022-09-07T12:13:12.973Z,3.40
2022-09-07T12:14:35.187Z,3.22
2022-09-07T12:15:45.906Z,3.70
2022-09-07T12:17:09.269Z,4.00
2022-09-07T12:18:34.333Z,3.67
2022-09-07T12:19:35.934Z,3.45
2022-09-07T12:20:42.417Z,3.47
2022-09-07T12:21:45.589Z,3.92
2022-09-07T12:23:04.225Z,4.30
2022-09-07T12:24:38.967Z,3.70
2022-09-07T12:25:41.667Z,2.20
2022-09-07T12:26:49.942Z,2.10
2022-09-07T12:27:53.095Z,3.97
2022-09-07T12:29:20.440Z,4.00
2022-09-07T12:30:57.034Z,4.22
2022-09-07T12:32:52.581Z,4.20
2022-09-07T12:33:25.312Z,4.07
2022-09-07T12:34:52.540Z,4.68
2022-09-07T12:35:58.785Z,4.50
2022-09-07T12:37:00.821Z,4.47
2022-09-07T12:38:05.897Z,5.20
2022-09-07T12:39:28.455Z,4.00
2022-09-07T12:40:50.173Z,4.28
2022-09-07T12:43:32.087Z,4.65
2022-09-07T12:44:35.788Z,5.03
2022-09-07T12:45:49.808Z,5.10
2022-09-07T12:46:59.825Z,5.35
2022-09-07T12:48:06.089Z,6.28
2022-09-07T12:49:36.118Z,6.63
2022-09-07T12:50:42.667Z,5.78
2022-09-07T12:52:15.295Z,5.63
2022-09-07T12:53:29.906Z,5.53
2022-09-07T12:54:35.869Z,5.47
2022-09-07T12:57:29.703Z,5.72
2022-09-07T12:58:40.891Z,6.65
2022-09-07T12:59:55.421Z,6.28
2022-09-07T13:01:09.882Z,3.13
2022-09-07T13:02:31.727Z,5.97
2022-09-07T13:04:00.278Z,5.80
2022-09-07T13:05:15.479Z,6.20
2022-09-07T13:08:31.300Z,7.25
2022-09-07T13:09:35.002Z,5.32
2022-09-07T13:10:38.586Z,4.70
2022-09-07T13:11:40.464Z,2.97
2022-09-07T13:12:57.230Z,4.40
2022-09-07T13:14:05.191Z,3.78
2022-09-07T13:15:38.090Z,3.17
2022-09-07T13:18:05.536Z,5.47
2022-09-07T13:19:14.454Z,4.95
2022-09-07T13:20:34.853Z,7.20
2022-09-07T13:21:41.386Z,8.00
2022-09-07T13:23:20.944Z,6.82
2022-09-07T13:24:50.284Z,6.00
2022-09-07T13:25:57.093Z,7.80
2022-09-07T13:27:02.083Z,8.10
2022-09-07T13:28:06.223Z,7.65
2022-09-07T13:29:13.813Z,8.05
2022-09-07T13:30:32.753Z,7.75
2022-09-07T13:31:54.836Z,6.65
2022-09-07T13:33:32.493Z,7.97
2022-09-07T13:34:56.160Z,7.78
2022-09-07T13:36:00.255Z,3.72
2022-09-07T13:37:03.507Z,7.43
2022-09-07T13:38:05.443Z,7.97
2022-09-07T13:39:14.191Z,8.48
2022-09-07T13:40:18.998Z,8.10
2022-09-07T13:41:24.043Z,8.05
2022-09-07T13:42:30.004Z,7.68
2022-09-07T13:43:31.832Z,7.53
2022-09-07T13:44:35.410Z,7.10
2022-09-07T13:45:47.399Z,6.70
2022-09-07T13:47:11.293Z,3.70
2022-09-07T13:48:18.922Z,6.70
2022-09-07T13:49:41.888Z,6.70
2022-09-07T13:50:54.237Z,6.63
2022-09-07T13:52:02.619Z,6.35
2022-09-07T13:53:31.713Z,7.43
2022-09-07T13:54:46.351Z,8.90
2022-09-07T13:55:56.485Z,6.47
2022-09-07T13:57:11.336Z,5.47
2022-09-07T13:58:17.000Z,6.85
2022-09-07T13:59:20.989Z,7.13
2022-09-07T14:00:22.750Z,6.32
2022-09-07T14:01:27.541Z,6.53
2022-09-07T14:02:32.743Z,6.20
2022-09-07T14:03:39.226Z,6.47
2022-09-07T14:04:43.227Z,6.65
2022-09-07T14:05:44.806Z,6.47
2022-09-07T14:06:47.409Z,5.97
2022-09-07T14:07:49.001Z,6.10
2022-09-07T14:08:52.654Z,7.57
2022-09-07T14:10:14.149Z,6.85
2022-09-07T14:11:20.259Z,6.65
2022-09-07T14:12:22.962Z,6.68
2022-09-07T14:13:24.552Z,6.80
2022-09-07T14:14:29.419Z,7.63
2022-09-07T14:15:34.290Z,6.93
2022-09-07T14:16:37.079Z,8.05
2022-09-07T14:17:39.735Z,7.30
2022-09-07T14:18:42.414Z,6.30
2022-09-07T14:19:46.657Z,7.22
2022-09-07T14:20:50.239Z,8.07
2022-09-07T14:21:57.290Z,7.57
2022-09-07T14:22:59.373Z,7.97
2022-09-07T14:24:03.347Z,7.03
2022-09-07T14:25:07.907Z,4.95
2022-09-07T14:26:16.334Z,6.57
2022-09-07T14:27:23.405Z,6.93
2022-09-07T14:28:31.783Z,6.65
2022-09-07T14:29:35.849Z,7.43
2022-09-07T14:30:37.934Z,7.78
2022-09-07T14:31:40.698Z,8.30
2022-09-07T14:32:44.156Z,7.40
2022-09-07T14:33:49.608Z,4.30
2022-09-07T14:34:53.123Z,5.28
2022-09-07T14:35:55.643Z,4.38
2022-09-07T14:37:01.393Z,6.78
2022-09-07T14:38:06.249Z,7.40
2022-09-07T14:39:09.637Z,7.88
2022-09-07T14:40:15.286Z,8.25
2022-09-07T14:41:18.764Z,8.48
2022-09-07T14:42:24.237Z,7.53
2022-09-07T14:43:27.415Z,8.20
2022-09-07T14:44:32.570Z,7.97
2022-09-07T14:45:34.781Z,4.95
2022-09-07T14:46:38.882Z,7.20
2022-09-07T14:47:40.663Z,7.22
2022-09-07T14:48:45.394Z,7.38
2022-09-07T14:49:50.888Z,8.02
2022-09-07T14:51:05.789Z,7.30
2022-09-07T14:52:18.687Z,7.50
2022-09-07T14:53:36.081Z,7.80
2022-09-07T14:54:38.929Z,7.65
2022-09-07T14:55:42.081Z,7.15
2022-09-07T14:56:46.875Z,7.35
2022-09-07T14:57:49.870Z,7.32
2022-09-07T14:58:52.722Z,7.60
2022-09-07T14:59:57.177Z,6.95
2022-09-07T15:02:41.995Z,6.70
2022-09-07T15:04:00.324Z,7.45
2022-09-07T15:05:27.785Z,7.78
2022-09-07T15:08:01.444Z,5.78
2022-09-07T15:09:04.261Z,5.35
2022-09-07T15:10:17.133Z,7.32
2022-09-07T15:11:37.942Z,7.53
2022-09-07T15:12:41.638Z,7.97
2022-09-07T15:13:46.035Z,7.22
2022-09-07T15:14:47.978Z,7.30
2022-09-07T15:15:58.289Z,7.32
2022-09-07T15:18:51.670Z,6.20
2022-09-07T15:19:54.226Z,4.90
2022-09-07T15:20:55.875Z,5.53
2022-09-07T15:21:58.392Z,5.10
2022-09-07T15:23:00.072Z,4.95
2022-09-07T15:24:03.769Z,4.47
2022-09-07T15:25:06.124Z,5.60
2022-09-07T15:27:01.899Z,6.72
2022-09-07T15:27:33.980Z,4.78
2022-09-07T15:29:59.601Z,7.90
2022-09-07T15:32:23.793Z,6.50
2022-09-07T15:33:25.379Z,7.22
2022-09-07T15:34:27.953Z,7.30
2022-09-07T15:35:29.548Z,7.75
2022-09-07T15:36:32.364Z,6.70